Time;durP1;ratioP1;P1;durP2;ratioP2;P2;SDS_P1;SDS_P2;PMS_P1;PMS_P2;Temp;Humidity;BMP_temperature;BMP_pressure;BME280_temperature;BME280_humidity;BME280_pressure;Samples;Min_cycle;Max_cycle;Signal;HPM_P1;HPM_P2
2022/03/05 00:00:59;;;;;;;12.30;7.47;;;;;;;;;;4985427;28;20042;-55
2022/03/05 00:03:26;;;;;;;12.05;6.85;;;;;;;;;;4972041;28;20436;-55
2022/03/05 00:05:52;;;;;;;10.75;6.78;;;;;;;;;;4989931;28;20023;-55
2022/03/05 00:08:19;;;;;;;13.38;7.15;;;;;;;;;;4990361;28;20444;-55
2022/03/05 00:10:45;;;;;;;11.32;7.05;;;;;;;;;;4989174;28;20027;-55
2022/03/05 00:13:12;;;;;;;14.13;8.48;;;;;;;;;;4989906;28;20026;-54
2022/03/05 00:15:39;;;;;;;12.60;7.82;;;;;;;;;;4989647;28;20026;-55
2022/03/05 00:18:06;;;;;;;12.75;8.23;;;;;;;;;;4972324;28;20106;-55
2022/03/05 00:20:32;;;;;;;13.75;8.68;;;;;;;;;;4971141;28;20023;-54
2022/03/05 00:22:58;;;;;;;15.95;9.55;;;;;;;;;;4972523;28;20034;-55
2022/03/05 00:25:24;;;;;;;14.95;9.35;;;;;;;;;;4988643;28;20022;-53
2022/03/05 00:27:51;;;;;;;16.30;9.75;;;;;;;;;;4989737;28;20030;-55
2022/03/05 00:30:17;;;;;;;18.85;10.52;;;;;;;;;;4989355;28;20034;-55
2022/03/05 00:32:45;;;;;;;16.63;9.93;;;;;;;;;;4989779;28;20122;-55
2022/03/05 00:35:13;;;;;;;19.17;10.88;;;;;;;;;;4989519;28;20034;-54
2022/03/05 00:37:39;;;;;;;18.35;9.95;;;;;;;;;;4989548;28;20560;-56
2022/03/05 00:40:06;;;;;;;17.23;9.98;;;;;;;;;;4988707;28;20413;-55
2022/03/05 00:42:33;;;;;;;15.10;9.02;;;;;;;;;;4989155;28;20038;-55
2022/03/05 00:44:59;;;;;;;13.82;9.07;;;;;;;;;;4989402;28;20525;-54
2022/03/05 00:47:26;;;;;;;14.65;9.27;;;;;;;;;;4971997;28;20018;-54
2022/03/05 00:49:53;;;;;;;15.35;8.95;;;;;;;;;;4974152;28;20049;-55
2022/03/05 00:52:19;;;;;;;15.68;8.35;;;;;;;;;;4989454;28;20460;-54
2022/03/05 00:54:46;;;;;;;16.33;9.70;;;;;;;;;;4988936;28;20324;-55
2022/03/05 00:57:13;;;;;;;14.45;9.10;;;;;;;;;;4989010;28;20027;-54
2022/03/05 00:59:40;;;;;;;15.63;9.60;;;;;;;;;;4987625;28;20102;-54
2022/03/05 01:02:07;;;;;;;13.85;8.43;;;;;;;;;;4981019;28;20527;-54
2022/03/05 01:04:33;;;;;;;13.43;8.25;;;;;;;;;;4990538;28;20037;-54
2022/03/05 01:06:59;;;;;;;14.25;7.95;;;;;;;;;;5008389;28;20022;-55
2022/03/05 01:09:26;;;;;;;12.90;7.80;;;;;;;;;;4974498;28;20125;-57
2022/03/05 01:11:52;;;;;;;14.25;7.88;;;;;;;;;;4987686;28;20034;-57
2022/03/05 01:14:18;;;;;;;14.30;8.30;;;;;;;;;;4974544;28;20071;-57
2022/03/05 01:16:44;;;;;;;13.93;8.15;;;;;;;;;;4969840;28;20059;-57
2022/03/05 01:19:11;;;;;;;13.75;8.77;;;;;;;;;;4969834;28;20059;-57
2022/03/05 01:21:37;;;;;;;17.48;8.85;;;;;;;;;;4986673;28;20045;-57
2022/03/05 01:24:03;;;;;;;14.70;8.65;;;;;;;;;;4989082;28;20032;-57
2022/03/05 01:26:30;;;;;;;15.35;9.00;;;;;;;;;;4988740;28;20157;-57
2022/03/05 01:28:56;;;;;;;16.75;9.65;;;;;;;;;;4989262;28;20027;-57
2022/03/05 01:31:22;;;;;;;16.50;8.82;;;;;;;;;;4988440;28;20096;-57
2022/03/05 01:33:48;;;;;;;16.10;9.35;;;;;;;;;;4988261;28;20100;-57
2022/03/05 01:36:14;;;;;;;17.67;9.95;;;;;;;;;;4989280;28;20054;-57
2022/03/05 01:38:40;;;;;;;16.33;9.48;;;;;;;;;;4988073;28;20533;-57
2022/03/05 01:41:07;;;;;;;14.15;8.10;;;;;;;;;;4988806;28;20049;-57
2022/03/05 01:43:33;;;;;;;14.35;8.48;;;;;;;;;;4987104;28;20213;-57
2022/03/05 01:45:59;;;;;;;15.05;8.95;;;;;;;;;;4988690;28;20023;-57
2022/03/05 01:48:25;;;;;;;15.13;9.20;;;;;;;;;;4988869;28;20118;-56
2022/03/05 01:50:51;;;;;;;15.75;9.43;;;;;;;;;;4988583;28;20058;-57
2022/03/05 01:53:17;;;;;;;14.15;8.88;;;;;;;;;;4987938;28;20081;-57
2022/03/05 01:55:44;;;;;;;14.70;9.43;;;;;;;;;;4988405;28;20106;-57
2022/03/05 01:58:10;;;;;;;14.18;8.43;;;;;;;;;;4975443;28;20039;-57
2022/03/05 02:00:36;;;;;;;16.42;9.60;;;;;;;;;;4968847;28;20070;-57
2022/03/05 02:03:03;;;;;;;14.95;9.85;;;;;;;;;;4969095;28;20490;-57
2022/03/05 02:05:29;;;;;;;16.85;9.80;;;;;;;;;;4968815;28;20023;-57
2022/03/05 02:07:55;;;;;;;16.88;9.57;;;;;;;;;;4969305;28;20046;-57
2022/03/05 02:10:21;;;;;;;14.30;8.50;;;;;;;;;;4969250;28;20050;-57
2022/03/05 02:12:47;;;;;;;14.55;8.90;;;;;;;;;;4968818;28;20125;-57
2022/03/05 02:15:13;;;;;;;18.38;10.75;;;;;;;;;;4986439;28;20066;-57
2022/03/05 02:17:39;;;;;;;17.67;10.45;;;;;;;;;;4987200;28;20038;-57
2022/03/05 02:20:06;;;;;;;16.67;9.88;;;;;;;;;;4988324;28;20023;-57
2022/03/05 02:22:33;;;;;;;19.67;10.88;;;;;;;;;;4987122;28;20092;-57
2022/03/05 02:25:02;;;;;;;17.10;10.55;;;;;;;;;;4987085;28;20030;-57
2022/03/05 02:27:28;;;;;;;15.45;9.77;;;;;;;;;;4987776;28;20022;-57
2022/03/05 02:29:55;;;;;;;17.77;10.10;;;;;;;;;;4988013;28;20123;-57
2022/03/05 02:32:22;;;;;;;16.45;9.73;;;;;;;;;;4987623;28;20112;-57
2022/03/05 02:34:48;;;;;;;19.52;10.88;;;;;;;;;;4986981;28;20040;-57
2022/03/05 02:37:16;;;;;;;17.58;10.10;;;;;;;;;;4988003;28;20034;-57
2022/03/05 02:39:43;;;;;;;16.90;10.52;;;;;;;;;;4987789;28;20038;-57
2022/03/05 02:42:09;;;;;;;16.88;9.73;;;;;;;;;;4987836;28;20058;-57
2022/03/05 02:44:36;;;;;;;16.42;9.98;;;;;;;;;;4986651;28;20034;-57
2022/03/05 02:47:03;;;;;;;14.40;8.48;;;;;;;;;;4987690;28;20030;-57
2022/03/05 02:49:29;;;;;;;15.23;8.88;;;;;;;;;;4987378;28;20034;-57
2022/03/05 02:51:57;;;;;;;13.55;8.35;;;;;;;;;;4986723;28;20105;-57
2022/03/05 02:54:23;;;;;;;13.77;8.27;;;;;;;;;;4986814;28;20030;-57
2022/03/05 02:56:49;;;;;;;13.18;7.88;;;;;;;;;;4987291;28;20037;-57
2022/03/05 02:59:15;;;;;;;13.82;7.53;;;;;;;;;;4987413;28;20030;-57
2022/03/05 03:01:42;;;;;;;12.52;7.53;;;;;;;;;;4987285;28;20042;-57
2022/03/05 03:04:08;;;;;;;13.15;7.65;;;;;;;;;;4987066;28;20496;-57
2022/03/05 03:06:34;;;;;;;16.20;8.27;;;;;;;;;;4987457;28;20022;-57
2022/03/05 03:09:00;;;;;;;15.13;9.27;;;;;;;;;;4988757;28;20694;-57
2022/03/05 03:11:26;;;;;;;14.07;8.75;;;;;;;;;;4988765;28;20061;-57
2022/03/05 03:13:52;;;;;;;15.80;9.45;;;;;;;;;;4981431;28;20503;-57
2022/03/05 03:16:18;;;;;;;17.20;10.20;;;;;;;;;;4969155;28;20410;-57
2022/03/05 03:18:45;;;;;;;17.75;9.77;;;;;;;;;;4969286;28;20022;-57
2022/03/05 03:21:11;;;;;;;17.10;9.45;;;;;;;;;;4969084;28;20058;-57
2022/03/05 03:23:37;;;;;;;17.83;9.77;;;;;;;;;;4972047;28;20011;-57
2022/03/05 03:26:03;;;;;;;17.95;9.65;;;;;;;;;;4988415;28;20504;-57
2022/03/05 03:28:29;;;;;;;17.90;10.77;;;;;;;;;;4988571;28;20030;-57
2022/03/05 03:30:55;;;;;;;17.60;10.00;;;;;;;;;;4970961;28;20022;-57
2022/03/05 03:33:21;;;;;;;19.45;10.13;;;;;;;;;;4987157;28;20034;-57
2022/03/05 03:35:48;;;;;;;20.75;10.45;;;;;;;;;;4968906;28;20031;-57
2022/03/05 03:38:14;;;;;;;20.40;11.43;;;;;;;;;;4968634;28;20438;-57
2022/03/05 03:40:40;;;;;;;18.20;10.23;;;;;;;;;;4969034;28;20038;-57
2022/03/05 03:43:06;;;;;;;17.45;9.75;;;;;;;;;;4968825;28;20026;-57
2022/03/05 03:45:32;;;;;;;17.73;10.15;;;;;;;;;;4985262;28;20895;-57
2022/03/05 03:47:58;;;;;;;20.73;11.15;;;;;;;;;;4986617;28;20513;-57
2022/03/05 03:50:24;;;;;;;22.52;12.23;;;;;;;;;;4982515;28;20026;-57
2022/03/05 03:52:51;;;;;;;22.52;12.18;;;;;;;;;;4987517;28;20503;-57
2022/03/05 03:55:18;;;;;;;23.02;12.30;;;;;;;;;;4988672;28;20030;-57
2022/03/05 03:57:45;;;;;;;19.48;11.25;;;;;;;;;;4988349;28;20489;-57
2022/03/05 04:00:12;;;;;;;21.23;12.27;;;;;;;;;;4977345;28;20506;-57
2022/03/05 04:02:39;;;;;;;21.00;11.85;;;;;;;;;;4968337;28;20027;-57
2022/03/05 04:05:05;;;;;;;23.15;11.05;;;;;;;;;;4968858;28;20113;-57
2022/03/05 04:10:16;;;;;;;19.38;11.48;;;;;;;;;;4979827;28;20053;-57
2022/03/05 04:12:43;;;;;;;19.77;11.43;;;;;;;;;;4988231;28;20026;-57
2022/03/05 04:15:09;;;;;;;19.58;11.30;;;;;;;;;;4988520;28;20026;-57
2022/03/05 04:17:35;;;;;;;20.50;11.48;;;;;;;;;;4986570;28;20023;-57
2022/03/05 04:20:01;;;;;;;24.20;13.05;;;;;;;;;;4978965;28;20564;-57
2022/03/05 04:22:28;;;;;;;20.95;12.60;;;;;;;;;;4968535;28;20041;-57
2022/03/05 04:24:54;;;;;;;20.70;12.38;;;;;;;;;;4968810;28;20040;-57
2022/03/05 04:27:20;;;;;;;21.85;12.43;;;;;;;;;;4968414;28;20166;-56
2022/03/05 04:29:46;;;;;;;20.13;11.20;;;;;;;;;;4974483;28;20492;-57
2022/03/05 04:32:12;;;;;;;19.30;10.68;;;;;;;;;;4987333;28;20481;-57
2022/03/05 04:34:38;;;;;;;16.42;9.95;;;;;;;;;;4987769;28;20081;-57
2022/03/05 04:37:04;;;;;;;18.80;11.00;;;;;;;;;;4987942;28;20022;-57
2022/03/05 04:39:30;;;;;;;19.27;10.80;;;;;;;;;;4985781;28;20031;-57
2022/03/05 04:41:56;;;;;;;19.15;10.52;;;;;;;;;;4968622;28;20054;-57
2022/03/05 04:44:22;;;;;;;21.40;10.85;;;;;;;;;;4968339;28;20598;-57
2022/03/05 04:46:48;;;;;;;20.08;11.00;;;;;;;;;;4968558;28;20027;-57
2022/03/05 04:49:15;;;;;;;18.70;10.65;;;;;;;;;;4970032;28;20027;-56
2022/03/05 04:51:41;;;;;;;18.08;10.45;;;;;;;;;;4971801;28;20042;-56
2022/03/05 04:54:07;;;;;;;18.25;10.20;;;;;;;;;;4972022;28;20034;-57
2022/03/05 04:56:33;;;;;;;16.10;9.40;;;;;;;;;;4971599;28;20068;-57
2022/03/05 04:58:59;;;;;;;16.88;10.25;;;;;;;;;;4982211;28;20073;-57
2022/03/05 05:01:25;;;;;;;17.38;9.63;;;;;;;;;;4974034;28;20542;-57
2022/03/05 05:03:52;;;;;;;17.05;9.27;;;;;;;;;;4971859;28;20037;-57
2022/03/05 05:06:18;;;;;;;15.75;8.95;;;;;;;;;;4971821;28;20027;-57
2022/03/05 05:08:44;;;;;;;14.57;9.02;;;;;;;;;;4971650;28;20050;-57
2022/03/05 05:11:11;;;;;;;15.23;8.88;;;;;;;;;;4985565;28;20812;-57
2022/03/05 05:13:38;;;;;;;13.55;8.18;;;;;;;;;;4990217;28;20069;-57
2022/03/05 05:16:05;;;;;;;15.10;8.80;;;;;;;;;;4990923;28;20468;-57
2022/03/05 05:18:33;;;;;;;16.77;9.48;;;;;;;;;;4990694;28;20469;-57
2022/03/05 05:20:59;;;;;;;15.23;9.43;;;;;;;;;;4990186;28;20117;-57
2022/03/05 05:23:25;;;;;;;14.18;8.57;;;;;;;;;;4990448;28;20038;-57
2022/03/05 05:25:51;;;;;;;14.63;8.70;;;;;;;;;;4990815;28;20394;-56
2022/03/05 05:28:17;;;;;;;14.82;9.13;;;;;;;;;;4990924;28;20101;-57
2022/03/05 05:30:43;;;;;;;14.88;9.40;;;;;;;;;;4979812;28;20031;-56
2022/03/05 05:33:10;;;;;;;16.33;9.55;;;;;;;;;;4971019;28;20042;-57
2022/03/05 05:35:36;;;;;;;14.80;9.27;;;;;;;;;;4970968;28;20397;-57
2022/03/05 05:38:02;;;;;;;16.65;9.20;;;;;;;;;;4971082;28;20042;-57
2022/03/05 05:40:28;;;;;;;15.43;8.90;;;;;;;;;;4970812;28;20027;-57
2022/03/05 05:42:54;;;;;;;15.20;8.85;;;;;;;;;;4985869;28;20034;-57
2022/03/05 05:45:20;;;;;;;16.13;9.10;;;;;;;;;;4990266;28;20060;-57
2022/03/05 05:47:46;;;;;;;17.85;9.48;;;;;;;;;;4990504;28;20106;-57
2022/03/05 05:50:12;;;;;;;17.55;9.50;;;;;;;;;;4990417;28;20069;-57
2022/03/05 05:52:39;;;;;;;15.63;9.63;;;;;;;;;;4989230;28;20068;-57
2022/03/05 05:55:05;;;;;;;14.43;8.85;;;;;;;;;;4990343;28;20027;-57
2022/03/05 05:57:31;;;;;;;15.27;8.98;;;;;;;;;;4989912;28;20532;-57
2022/03/05 05:59:57;;;;;;;15.35;9.10;;;;;;;;;;4988923;28;20033;-57
2022/03/05 06:02:23;;;;;;;15.82;9.00;;;;;;;;;;4973723;28;20121;-57
2022/03/05 06:04:49;;;;;;;17.05;9.23;;;;;;;;;;4970617;28;20437;-57
2022/03/05 06:07:16;;;;;;;16.13;9.05;;;;;;;;;;4970686;28;20382;-57
2022/03/05 06:09:42;;;;;;;15.13;8.45;;;;;;;;;;4974668;28;20039;-57
2022/03/05 06:12:08;;;;;;;13.25;8.05;;;;;;;;;;4978770;28;20035;-57
2022/03/05 06:14:35;;;;;;;17.00;8.85;;;;;;;;;;4969806;28;20051;-57
2022/03/05 06:17:01;;;;;;;17.77;9.60;;;;;;;;;;4986796;28;20046;-57
2022/03/05 06:19:27;;;;;;;17.63;9.32;;;;;;;;;;4989009;28;20643;-57
2022/03/05 06:21:53;;;;;;;14.80;9.02;;;;;;;;;;4989653;28;20053;-57
2022/03/05 06:24:19;;;;;;;16.73;9.65;;;;;;;;;;4989703;28;20117;-57
2022/03/05 06:26:45;;;;;;;15.82;9.43;;;;;;;;;;4989812;28;20022;-56
2022/03/05 06:29:11;;;;;;;16.65;9.52;;;;;;;;;;4989218;28;20029;-57
2022/03/05 06:31:37;;;;;;;15.00;9.38;;;;;;;;;;4988899;28;20045;-56
2022/03/05 06:34:03;;;;;;;15.02;8.77;;;;;;;;;;4986621;28;20648;-56
2022/03/05 06:36:30;;;;;;;15.48;8.75;;;;;;;;;;4988901;28;20038;-57
2022/03/05 06:38:56;;;;;;;15.65;9.70;;;;;;;;;;4989471;28;20032;-57
2022/03/05 06:41:22;;;;;;;16.02;9.38;;;;;;;;;;4987715;28;20042;-56
2022/03/05 06:43:48;;;;;;;14.90;8.57;;;;;;;;;;4988477;28;20053;-57
2022/03/05 06:46:14;;;;;;;16.55;9.57;;;;;;;;;;4988362;28;20489;-56
2022/03/05 06:48:40;;;;;;;17.40;9.93;;;;;;;;;;4989267;28;20077;-57
2022/03/05 06:57:13;;;;;;;20.58;12.07;;;;;;;;;;4987764;28;20037;-56
2022/03/05 06:59:39;;;;;;;21.00;12.38;;;;;;;;;;4989596;28;20389;-56
2022/03/05 07:02:06;;;;;;;21.88;12.90;;;;;;;;;;4989133;28;20034;-57
2022/03/05 07:04:32;;;;;;;19.45;11.00;;;;;;;;;;4989356;28;20093;-56
2022/03/05 07:06:58;;;;;;;17.08;10.18;;;;;;;;;;4989396;28;20408;-57
2022/03/05 07:09:24;;;;;;;17.90;10.98;;;;;;;;;;4989489;28;20042;-56
2022/03/05 07:11:50;;;;;;;17.48;9.90;;;;;;;;;;4987098;28;20521;-56
2022/03/05 07:14:16;;;;;;;17.60;10.20;;;;;;;;;;4989302;28;20518;-57
2022/03/05 07:16:42;;;;;;;16.38;9.93;;;;;;;;;;4971856;28;20038;-56
2022/03/05 07:19:08;;;;;;;17.42;10.07;;;;;;;;;;4969974;28;20050;-56
2022/03/05 07:21:34;;;;;;;16.13;9.60;;;;;;;;;;4971823;28;20788;-56
2022/03/05 07:24:00;;;;;;;18.25;10.55;;;;;;;;;;4989155;28;20493;-56
2022/03/05 07:26:26;;;;;;;15.40;9.80;;;;;;;;;;4988819;28;20033;-56
2022/03/05 07:28:53;;;;;;;18.45;10.88;;;;;;;;;;4989019;28;20023;-56
2022/03/05 07:31:20;;;;;;;17.65;10.57;;;;;;;;;;4986542;28;20117;-56
2022/03/05 07:33:46;;;;;;;16.38;9.75;;;;;;;;;;4974050;28;20513;-56
2022/03/05 07:36:12;;;;;;;16.02;9.82;;;;;;;;;;4969548;28;20721;-56
2022/03/05 07:38:41;;;;;;;16.90;10.07;;;;;;;;;;4974581;28;20058;-56
2022/03/05 07:41:07;;;;;;;18.02;10.02;;;;;;;;;;4988805;28;20092;-56
2022/03/05 07:43:33;;;;;;;18.95;10.35;;;;;;;;;;4987316;28;20038;-57
2022/03/05 07:45:59;;;;;;;21.17;10.52;;;;;;;;;;4987966;28;20033;-56
2022/03/05 07:48:25;;;;;;;17.42;10.52;;;;;;;;;;4987636;28;20030;-56
2022/03/05 07:50:51;;;;;;;15.73;8.75;;;;;;;;;;4985963;28;20473;-56
2022/03/05 07:53:17;;;;;;;16.67;10.00;;;;;;;;;;4988759;28;20394;-57
2022/03/05 07:55:44;;;;;;;17.15;9.63;;;;;;;;;;4981855;28;20466;-57
2022/03/05 07:58:10;;;;;;;16.45;10.27;;;;;;;;;;4985158;28;20038;-56
2022/03/05 08:00:36;;;;;;;18.73;10.52;;;;;;;;;;4988577;28;20031;-56
2022/03/05 08:03:02;;;;;;;16.60;9.55;;;;;;;;;;4988001;28;20124;-56
2022/03/05 08:05:28;;;;;;;16.92;9.98;;;;;;;;;;4981600;28;20420;-57
2022/03/05 08:07:54;;;;;;;18.95;10.52;;;;;;;;;;4989655;28;20161;-56
2022/03/05 08:10:20;;;;;;;18.15;10.63;;;;;;;;;;4970279;28;20034;-56
2022/03/05 08:12:46;;;;;;;15.23;9.38;;;;;;;;;;4970252;28;20058;-57
2022/03/05 08:15:13;;;;;;;17.83;10.30;;;;;;;;;;4987059;28;20030;-56
2022/03/05 08:17:52;;;;;;;18.45;10.63;;;;;;;;;;4989812;28;20226;-56
2022/03/05 08:20:18;;;;;;;19.13;11.02;;;;;;;;;;4989478;28;20460;-56
2022/03/05 08:22:44;;;;;;;18.38;9.95;;;;;;;;;;4990601;28;20397;-57
2022/03/05 08:25:12;;;;;;;15.55;9.43;;;;;;;;;;4991227;28;20025;-57
2022/03/05 08:27:38;;;;;;;17.63;9.95;;;;;;;;;;4993505;28;20018;-57
2022/03/05 08:30:05;;;;;;;17.27;10.13;;;;;;;;;;4993213;28;20030;-57
2022/03/05 08:32:31;;;;;;;16.45;10.32;;;;;;;;;;4993163;28;20026;-57
2022/03/05 08:34:57;;;;;;;15.63;9.30;;;;;;;;;;4991433;28;20413;-57
2022/03/05 08:37:23;;;;;;;13.90;9.07;;;;;;;;;;4991492;28;20022;-57
2022/03/05 08:39:49;;;;;;;13.50;8.75;;;;;;;;;;4992499;28;20439;-57
2022/03/05 08:42:15;;;;;;;14.40;9.07;;;;;;;;;;4990943;28;20452;-58
2022/03/05 08:44:41;;;;;;;15.77;9.52;;;;;;;;;;4992171;28;20041;-57
2022/03/05 08:47:08;;;;;;;14.50;9.13;;;;;;;;;;4990327;28;20509;-57
2022/03/05 08:49:35;;;;;;;17.45;9.45;;;;;;;;;;4987958;28;20031;-57
2022/03/05 08:52:01;;;;;;;14.93;9.07;;;;;;;;;;4990299;28;20505;-55
2022/03/05 08:54:28;;;;;;;17.27;9.70;;;;;;;;;;4991957;28;20088;-57
2022/03/05 08:56:54;;;;;;;15.70;9.25;;;;;;;;;;4987375;28;20026;-57
2022/03/05 08:59:21;;;;;;;13.68;8.02;;;;;;;;;;4988671;28;20506;-57
2022/03/05 09:01:47;;;;;;;13.57;7.63;;;;;;;;;;4988619;28;20037;-57
2022/03/05 09:04:13;;;;;;;14.05;7.65;;;;;;;;;;4990067;28;20022;-57
2022/03/05 09:06:39;;;;;;;15.00;8.88;;;;;;;;;;4989404;28;20030;-57
2022/03/05 09:09:06;;;;;;;12.90;7.93;;;;;;;;;;4989532;28;20078;-57
2022/03/05 09:11:32;;;;;;;12.57;7.50;;;;;;;;;;4989617;28;20027;-57
2022/03/05 09:13:58;;;;;;;15.05;10.07;;;;;;;;;;4987215;28;20417;-57
2022/03/05 09:16:25;;;;;;;16.27;9.27;;;;;;;;;;4989039;28;20097;-57
2022/03/05 09:18:51;;;;;;;17.98;10.75;;;;;;;;;;4988353;28;20466;-57
2022/03/05 09:21:17;;;;;;;16.05;9.98;;;;;;;;;;4990116;28;20057;-57
2022/03/05 09:23:43;;;;;;;15.43;9.50;;;;;;;;;;4990440;28;20065;-57
2022/03/05 09:26:09;;;;;;;15.90;9.07;;;;;;;;;;4989771;28;20109;-58
2022/03/05 09:28:36;;;;;;;16.23;8.63;;;;;;;;;;4987033;28;20474;-57
2022/03/05 09:31:03;;;;;;;15.05;8.48;;;;;;;;;;4987880;28;20113;-57
2022/03/05 09:33:30;;;;;;;14.73;8.32;;;;;;;;;;4987494;28;20022;-58
2022/03/05 09:35:56;;;;;;;12.88;6.82;;;;;;;;;;4988750;28;20027;-57
2022/03/05 09:38:22;;;;;;;13.10;7.03;;;;;;;;;;4989594;28;20105;-57
2022/03/05 09:40:48;;;;;;;13.02;7.72;;;;;;;;;;4988569;28;20381;-57
2022/03/05 09:43:16;;;;;;;11.20;7.07;;;;;;;;;;4988997;28;20106;-57
2022/03/05 09:45:44;;;;;;;11.35;6.75;;;;;;;;;;4989054;28;20093;-57
2022/03/05 09:48:13;;;;;;;11.38;6.72;;;;;;;;;;4988833;28;20034;-57
2022/03/05 09:50:39;;;;;;;11.48;7.18;;;;;;;;;;4987659;28;20034;-57
2022/03/05 09:53:05;;;;;;;13.20;7.50;;;;;;;;;;4986510;28;20030;-57
2022/03/05 09:55:32;;;;;;;13.45;8.30;;;;;;;;;;4988475;28;20073;-57
2022/03/05 09:57:59;;;;;;;13.40;7.97;;;;;;;;;;4988348;28;20077;-57
2022/03/05 10:00:25;;;;;;;11.52;6.93;;;;;;;;;;4989369;28;20478;-57
2022/03/05 10:02:51;;;;;;;11.48;7.05;;;;;;;;;;4988538;28;20030;-57
2022/03/05 10:05:21;;;;;;;10.68;6.78;;;;;;;;;;4988339;28;20041;-57
2022/03/05 10:07:59;;;;;;;10.93;6.82;;;;;;;;;;4988550;28;20027;-57
2022/03/05 10:10:25;;;;;;;10.82;6.70;;;;;;;;;;4989270;28;20070;-57
2022/03/05 10:12:51;;;;;;;10.10;6.18;;;;;;;;;;4988168;28;20409;-57
2022/03/05 10:15:21;;;;;;;11.70;6.72;;;;;;;;;;4988371;28;20026;-57
2022/03/05 10:17:48;;;;;;;10.90;6.38;;;;;;;;;;4987871;28;20596;-57
2022/03/05 10:20:14;;;;;;;11.43;6.70;;;;;;;;;;4988097;28;20030;-57
2022/03/05 10:23:01;;;;;;;11.80;7.35;;;;;;;;;;4988505;28;20038;-57
2022/03/05 10:25:29;;;;;;;11.98;7.13;;;;;;;;;;4983485;28;20488;-57
2022/03/05 10:28:05;;;;;;;10.70;6.30;;;;;;;;;;4974766;28;20014;-57
2022/03/05 10:30:41;;;;;;;11.07;6.35;;;;;;;;;;4986956;28;20030;-57
2022/03/05 10:33:07;;;;;;;9.18;5.95;;;;;;;;;;4987202;28;20132;-57
2022/03/05 10:35:34;;;;;;;9.57;5.93;;;;;;;;;;4974820;28;20076;-57
2022/03/05 10:38:00;;;;;;;11.20;6.38;;;;;;;;;;4987927;28;20050;-57
2022/03/05 10:40:30;;;;;;;9.82;5.70;;;;;;;;;;4988907;28;20041;-57
2022/03/05 10:43:00;;;;;;;9.85;5.90;;;;;;;;;;4988467;28;20031;-57
2022/03/05 10:45:29;;;;;;;10.25;6.25;;;;;;;;;;4988294;28;20038;-57
2022/03/05 10:47:55;;;;;;;12.57;7.95;;;;;;;;;;4988259;28;20516;-57
2022/03/05 10:50:23;;;;;;;19.85;11.90;;;;;;;;;;4987409;28;20085;-57
2022/03/05 10:52:51;;;;;;;19.40;11.40;;;;;;;;;;4986323;28;20038;-57
2022/03/05 10:55:18;;;;;;;20.65;10.23;;;;;;;;;;4985410;28;20419;-57
2022/03/05 10:58:00;;;;;;;19.55;11.05;;;;;;;;;;4988223;28;20026;-57
2022/03/05 11:00:26;;;;;;;16.30;8.93;;;;;;;;;;4986549;28;20030;-57
2022/03/05 11:02:52;;;;;;;14.45;8.20;;;;;;;;;;4987895;28;20034;-57
2022/03/05 11:05:19;;;;;;;13.10;7.88;;;;;;;;;;4987350;28;20101;-57
2022/03/05 11:07:45;;;;;;;13.50;7.68;;;;;;;;;;4987520;28;20026;-57
2022/03/05 11:10:11;;;;;;;13.18;7.60;;;;;;;;;;4987688;28;20027;-57
2022/03/05 11:12:39;;;;;;;14.82;8.75;;;;;;;;;;4988388;28;20030;-57
2022/03/05 11:15:09;;;;;;;12.25;7.97;;;;;;;;;;4988066;28;20078;-57
2022/03/05 11:17:36;;;;;;;11.30;7.13;;;;;;;;;;4987621;28;20035;-57
2022/03/05 11:20:03;;;;;;;13.88;8.18;;;;;;;;;;4987107;28;20413;-57
2022/03/05 11:22:30;;;;;;;12.43;7.75;;;;;;;;;;4987403;28;20383;-57
2022/03/05 11:24:56;;;;;;;12.70;8.13;;;;;;;;;;4986202;28;20024;-57
2022/03/05 11:27:23;;;;;;;14.85;8.90;;;;;;;;;;4986358;28;20121;-57
2022/03/05 11:29:55;;;;;;;16.35;9.73;;;;;;;;;;4982718;28;20081;-57
2022/03/05 11:32:25;;;;;;;18.77;11.23;;;;;;;;;;4987000;28;20046;-57
2022/03/05 11:34:53;;;;;;;18.02;10.07;;;;;;;;;;4981375;28;20125;-57
2022/03/05 11:37:22;;;;;;;15.55;9.68;;;;;;;;;;4984198;28;20082;-57
2022/03/05 11:39:48;;;;;;;13.75;9.38;;;;;;;;;;4976341;28;20034;-57
2022/03/05 11:42:27;;;;;;;16.08;9.23;;;;;;;;;;4986759;28;20030;-57
2022/03/05 11:44:53;;;;;;;14.35;8.65;;;;;;;;;;4986862;28;20038;-57
2022/03/05 11:47:19;;;;;;;12.50;7.97;;;;;;;;;;4987407;28;20089;-56
2022/03/05 11:49:58;;;;;;;12.77;8.43;;;;;;;;;;4987082;28;20363;-57
2022/03/05 11:52:40;;;;;;;12.43;7.80;;;;;;;;;;4986462;28;20413;-57
2022/03/05 11:55:13;;;;;;;11.73;8.10;;;;;;;;;;4985685;28;20034;-57
2022/03/05 11:57:40;;;;;;;13.15;8.38;;;;;;;;;;4988962;28;20445;-57
2022/03/05 12:00:06;;;;;;;15.90;8.45;;;;;;;;;;4991597;28;20041;-57
2022/03/05 12:02:41;;;;;;;12.35;8.23;;;;;;;;;;4990997;28;20045;-56
2022/03/05 12:05:07;;;;;;;12.43;7.75;;;;;;;;;;4992634;28;20101;-57
2022/03/05 12:07:51;;;;;;;11.80;7.80;;;;;;;;;;4990530;28;20030;-57
2022/03/05 12:10:17;;;;;;;11.05;7.13;;;;;;;;;;4990009;28;20505;-57
2022/03/05 12:12:54;;;;;;;10.90;7.10;;;;;;;;;;4991790;28;20512;-56
2022/03/05 12:15:26;;;;;;;10.23;6.60;;;;;;;;;;4991816;28;20035;-57
2022/03/05 12:17:53;;;;;;;8.75;5.63;;;;;;;;;;4991292;28;20038;-57
2022/03/05 12:20:27;;;;;;;9.30;6.05;;;;;;;;;;4990989;28;20030;-57
2022/03/05 12:23:01;;;;;;;10.38;6.70;;;;;;;;;;4991721;28;20027;-57
2022/03/05 12:25:27;;;;;;;;;;;;;;;;;;4992031;28;20033;-57
2022/03/05 12:27:53;;;;;;;8.02;4.95;;;;;;;;;;4989254;28;20281;-57
2022/03/05 12:30:20;;;;;;;7.53;5.00;;;;;;;;;;4980492;28;20723;-57
2022/03/05 12:32:47;;;;;;;10.05;6.80;;;;;;;;;;4973231;28;20026;-57
2022/03/05 12:35:15;;;;;;;9.20;6.10;;;;;;;;;;4989906;28;20042;-57
2022/03/05 12:37:43;;;;;;;9.32;5.90;;;;;;;;;;4990229;28;20662;-58
2022/03/05 12:40:09;;;;;;;8.65;5.63;;;;;;;;;;4989950;28;20401;-58
2022/03/05 12:42:36;;;;;;;7.97;4.90;;;;;;;;;;4954970;28;20034;-57
2022/03/05 12:45:02;;;;;;;7.60;5.22;;;;;;;;;;4986811;28;20073;-57
2022/03/05 12:47:34;;;;;;;6.90;4.50;;;;;;;;;;4989936;28;20097;-57
2022/03/05 12:50:20;;;;;;;7.35;5.18;;;;;;;;;;4972273;28;20030;-57
2022/03/05 12:53:13;;;;;;;9.82;5.60;;;;;;;;;;4986149;28;20129;-57
2022/03/05 12:55:40;;;;;;;8.45;5.35;;;;;;;;;;4978967;28;20054;-58
2022/03/05 12:58:06;;;;;;;7.75;5.22;;;;;;;;;;4986716;28;20030;-57
2022/03/05 13:00:33;;;;;;;6.95;4.78;;;;;;;;;;4989116;28;20402;-57
2022/03/05 13:02:59;;;;;;;6.95;4.60;;;;;;;;;;4989374;28;20109;-57
2022/03/05 13:05:25;;;;;;;9.48;5.82;;;;;;;;;;4988727;28;20508;-58
2022/03/05 13:07:51;;;;;;;8.77;5.60;;;;;;;;;;4987885;28;20054;-57
2022/03/05 13:10:17;;;;;;;9.52;6.60;;;;;;;;;;4987885;28;20034;-57
2022/03/05 13:12:43;;;;;;;8.85;6.10;;;;;;;;;;4988897;28;20030;-57
2022/03/05 13:15:20;;;;;;;9.10;5.47;;;;;;;;;;4987634;28;20038;-56
2022/03/05 13:17:47;;;;;;;8.65;6.00;;;;;;;;;;4983914;28;20542;-57
2022/03/05 13:20:15;;;;;;;8.25;5.63;;;;;;;;;;4986229;28;20066;-57
2022/03/05 13:22:41;;;;;;;6.32;4.47;;;;;;;;;;4988865;28;20026;-57
2022/03/05 13:25:10;;;;;;;6.38;4.38;;;;;;;;;;4988309;28;20588;-57
2022/03/05 13:27:36;;;;;;;6.65;4.43;;;;;;;;;;4988160;28;20030;-57
2022/03/05 13:30:10;;;;;;;7.43;4.63;;;;;;;;;;4988673;28;20038;-57
2022/03/05 13:32:46;;;;;;;8.20;5.47;;;;;;;;;;4987584;28;20026;-57
2022/03/05 13:35:13;;;;;;;7.72;5.55;;;;;;;;;;4987398;28;20405;-57
2022/03/05 13:37:39;;;;;;;7.93;5.18;;;;;;;;;;4981451;28;20035;-57
2022/03/05 13:40:06;;;;;;;6.68;4.63;;;;;;;;;;4987796;28;20034;-57
2022/03/05 13:42:34;;;;;;;5.18;3.88;;;;;;;;;;4988488;28;20034;-57
2022/03/05 13:45:01;;;;;;;5.47;3.70;;;;;;;;;;4986145;28;20113;-57
2022/03/05 13:47:27;;;;;;;5.30;3.60;;;;;;;;;;4987240;28;20030;-58
2022/03/05 13:49:59;;;;;;;4.72;2.88;;;;;;;;;;4987987;28;20034;-58
2022/03/05 13:52:26;;;;;;;4.60;3.65;;;;;;;;;;4986674;28;20093;-57
2022/03/05 13:54:52;;;;;;;5.93;4.03;;;;;;;;;;4988547;28;20034;-57
2022/03/05 13:57:31;;;;;;;5.35;3.67;;;;;;;;;;4970048;28;20041;-57
2022/03/05 14:00:14;;;;;;;6.63;3.58;;;;;;;;;;4987665;28;20026;-57
2022/03/05 14:02:41;;;;;;;4.65;3.65;;;;;;;;;;4988272;28;20037;-57
2022/03/05 14:05:09;;;;;;;5.57;3.72;;;;;;;;;;4986171;28;20200;-57
2022/03/05 14:07:42;;;;;;;4.97;3.67;;;;;;;;;;4986342;28;20027;-57
2022/03/05 14:10:09;;;;;;;6.60;4.27;;;;;;;;;;4986966;28;20365;-57
2022/03/05 14:12:36;;;;;;;4.95;3.40;;;;;;;;;;4985941;28;20599;-57
2022/03/05 14:15:04;;;;;;;5.32;3.67;;;;;;;;;;4985383;28;20034;-57
2022/03/05 14:17:31;;;;;;;4.93;3.30;;;;;;;;;;4986138;28;20030;-57
2022/03/05 14:20:07;;;;;;;5.80;4.00;;;;;;;;;;4987717;28;20030;-57
2022/03/05 14:22:35;;;;;;;7.32;4.28;;;;;;;;;;4984121;28;20038;-57
2022/03/05 14:25:01;;;;;;;12.85;7.30;;;;;;;;;;4986854;28;20432;-57
2022/03/05 14:27:27;;;;;;;12.77;7.13;;;;;;;;;;4987247;28;20037;-57
2022/03/05 14:29:53;;;;;;;9.82;6.30;;;;;;;;;;4987373;28;20038;-57
2022/03/05 14:32:19;;;;;;;9.93;5.78;;;;;;;;;;4981707;28;20031;-57
2022/03/05 14:34:46;;;;;;;11.07;6.97;;;;;;;;;;4982758;28;20065;-57
2022/03/05 14:37:12;;;;;;;14.45;8.82;;;;;;;;;;4967253;28;20046;-57